createdAt,value
2022-11-07T00:01:58.595Z,26.10
2022-11-07T00:04:29.767Z,26.10
2022-11-07T00:06:58.495Z,26.00
2022-11-07T00:09:26.516Z,25.90
2022-11-07T00:11:54.591Z,25.90
2022-11-07T00:14:22.764Z,25.90
2022-11-07T00:16:51.322Z,25.90
2022-11-07T00:19:21.770Z,25.90
2022-11-07T00:21:50.342Z,25.90
2022-11-07T00:24:19.151Z,25.90
2022-11-07T00:26:47.996Z,25.80
2022-11-07T00:29:20.961Z,25.90
2022-11-07T00:31:49.521Z,25.80
2022-11-07T00:34:17.099Z,25.80
2022-11-07T00:36:44.974Z,25.80
2022-11-07T00:39:12.497Z,25.80
2022-11-07T00:41:40.357Z,25.80
2022-11-07T00:44:07.959Z,25.80
2022-11-07T00:46:35.530Z,25.80
2022-11-07T00:49:03.029Z,25.70
2022-11-07T00:51:30.437Z,25.70
2022-11-07T00:53:57.897Z,25.70
2022-11-07T00:56:26.296Z,25.70
2022-11-07T00:58:58.720Z,25.70
2022-11-07T01:01:30.542Z,25.70
2022-11-07T01:04:17.296Z,25.70
2022-11-07T01:06:46.410Z,25.70
2022-11-07T01:09:21.742Z,25.70
2022-11-07T01:11:49.997Z,25.60
2022-11-07T01:14:21.330Z,25.60
2022-11-07T01:16:49.656Z,25.60
2022-11-07T01:19:18.067Z,25.50
2022-11-07T01:21:46.061Z,25.40
2022-11-07T01:24:15.169Z,25.40
2022-11-07T01:26:48.144Z,25.30
2022-11-07T01:29:20.117Z,25.30
2022-11-07T01:31:48.385Z,25.30
2022-11-07T01:34:17.944Z,25.20
2022-11-07T01:36:45.584Z,25.20
2022-11-07T01:39:13.305Z,25.10
2022-11-07T01:41:40.958Z,25.10
2022-11-07T01:44:08.302Z,25.00
2022-11-07T01:46:37.582Z,25.00
2022-11-07T01:49:21.865Z,24.90
2022-11-07T01:52:16.103Z,24.80
2022-11-07T01:54:55.799Z,24.80
2022-11-07T01:57:50.529Z,24.80
2022-11-07T02:00:22.950Z,24.70
2022-11-07T02:03:00.049Z,24.60
2022-11-07T02:05:55.344Z,24.60
2022-11-07T02:08:24.659Z,24.60
2022-11-07T02:10:53.551Z,24.60
2022-11-07T02:13:30.645Z,24.60
2022-11-07T02:16:02.744Z,24.60
2022-11-07T02:18:31.332Z,24.50
2022-11-07T02:21:08.640Z,24.50
2022-11-07T02:23:50.354Z,24.50
2022-11-07T02:26:18.552Z,24.50
2022-11-07T02:28:48.220Z,24.50
2022-11-07T02:31:15.634Z,24.40
2022-11-07T02:33:43.218Z,24.40
2022-11-07T02:36:17.888Z,24.40
2022-11-07T02:38:49.190Z,24.40
2022-11-07T02:41:20.587Z,24.40
2022-11-07T02:43:55.807Z,24.30
2022-11-07T02:46:23.723Z,24.30
2022-11-07T02:48:57.141Z,24.30
2022-11-07T02:51:25.372Z,24.30
2022-11-07T02:53:53.515Z,24.30
2022-11-07T02:56:22.335Z,24.30
2022-11-07T02:58:51.910Z,24.30
2022-11-07T03:01:20.236Z,24.30
2022-11-07T03:03:50.978Z,24.20
2022-11-07T03:06:22.693Z,24.20
2022-11-07T03:08:50.762Z,24.30
2022-11-07T03:11:21.611Z,24.20
2022-11-07T03:13:51.553Z,24.30
2022-11-07T03:16:20.184Z,24.20
2022-11-07T03:18:48.070Z,24.20
2022-11-07T03:21:15.588Z,24.20
2022-11-07T03:23:42.963Z,24.20
2022-11-07T03:26:10.596Z,24.20
2022-11-07T03:28:37.919Z,24.20
2022-11-07T03:31:05.530Z,24.10
2022-11-07T03:33:33.352Z,24.10
2022-11-07T03:36:00.999Z,24.10
2022-11-07T03:38:28.673Z,24.10
2022-11-07T03:40:58.307Z,24.20
2022-11-07T03:43:26.059Z,24.10
2022-11-07T03:45:53.454Z,24.10
2022-11-07T03:48:20.933Z,24.10
2022-11-07T03:50:48.341Z,24.10
2022-11-07T03:53:19.312Z,24.10
2022-11-07T03:55:49.677Z,24.10
2022-11-07T03:58:16.910Z,24.00
2022-11-07T04:00:44.553Z,24.00
2022-11-07T04:03:12.613Z,24.00
2022-11-07T04:05:40.438Z,24.00
2022-11-07T04:08:08.046Z,24.00
2022-11-07T04:10:35.606Z,24.00
2022-11-07T04:13:21.336Z,24.00
2022-11-07T04:16:12.374Z,23.90
2022-11-07T04:18:42.441Z,23.90
2022-11-07T04:21:09.978Z,23.90
2022-11-07T04:23:37.726Z,24.00
2022-11-07T04:26:23.770Z,23.90
2022-11-07T04:28:51.440Z,23.90
2022-11-07T04:31:18.892Z,23.90
2022-11-07T04:33:46.197Z,23.90
2022-11-07T04:36:13.516Z,23.80
2022-11-07T04:38:40.939Z,23.80
2022-11-07T04:41:20.842Z,23.80
2022-11-07T04:43:48.618Z,23.80
2022-11-07T04:46:17.063Z,23.80
2022-11-07T04:48:45.121Z,23.80
2022-11-07T04:51:22.422Z,23.80
2022-11-07T04:53:50.197Z,23.80
2022-11-07T04:56:17.877Z,23.80
2022-11-07T04:58:45.481Z,23.80
2022-11-07T05:01:13.203Z,23.80
2022-11-07T05:03:43.398Z,23.80
2022-11-07T05:06:14.713Z,23.80
2022-11-07T05:08:42.247Z,23.80
2022-11-07T05:11:09.744Z,23.80
2022-11-07T05:13:37.441Z,23.80
2022-11-07T05:16:05.308Z,23.80
2022-11-07T05:18:32.751Z,23.80
2022-11-07T05:21:00.118Z,23.80
2022-11-07T05:23:28.735Z,23.80
2022-11-07T05:25:56.998Z,23.80
2022-11-07T05:28:38.176Z,23.80
2022-11-07T05:31:08.119Z,23.80
2022-11-07T05:33:36.482Z,23.80
2022-11-07T05:36:20.157Z,23.80
2022-11-07T05:38:50.635Z,23.80
2022-11-07T05:41:21.449Z,23.80
2022-11-07T05:43:49.310Z,23.80
2022-11-07T05:46:16.762Z,23.80
2022-11-07T05:48:44.303Z,23.80
2022-11-07T05:51:11.893Z,23.80
2022-11-07T05:53:39.431Z,23.80
2022-11-07T05:56:07.322Z,23.80
2022-11-07T05:58:34.977Z,23.70
2022-11-07T06:01:04.691Z,23.70
